createdAt,value
2022-11-21T00:01:19.716Z,0.60
2022-11-21T00:03:47.625Z,0.70
2022-11-21T00:06:17.436Z,0.95
2022-11-21T00:08:46.239Z,0.63
2022-11-21T00:11:14.369Z,0.93
2022-11-21T00:13:42.550Z,0.80
2022-11-21T00:16:11.767Z,0.57
2022-11-21T00:18:40.468Z,0.50
2022-11-21T00:21:09.325Z,0.93
2022-11-21T00:23:38.604Z,0.50
2022-11-21T00:26:07.347Z,0.60
2022-11-21T00:28:35.423Z,0.63
2022-11-21T00:31:03.414Z,0.60
2022-11-21T00:33:31.462Z,0.60
2022-11-21T00:35:59.644Z,0.63
2022-11-21T00:38:28.557Z,0.60
2022-11-21T00:40:57.838Z,0.60
2022-11-21T00:43:25.784Z,0.60
2022-11-21T00:45:53.772Z,0.50
2022-11-21T00:48:21.624Z,0.60
2022-11-21T00:50:50.217Z,0.50
2022-11-21T00:53:18.161Z,0.60
2022-11-21T00:55:46.093Z,0.70
2022-11-21T00:58:15.304Z,0.80
2022-11-21T01:00:43.197Z,0.82
2022-11-21T01:03:11.173Z,0.90
2022-11-21T01:05:39.102Z,1.00
2022-11-21T01:08:07.041Z,0.80
2022-11-21T01:10:35.785Z,0.90
2022-11-21T01:13:03.792Z,0.80
2022-11-21T01:15:32.985Z,1.05
2022-11-21T01:18:00.924Z,1.10
2022-11-21T01:20:28.906Z,1.33
2022-11-21T01:22:56.791Z,2.20
2022-11-21T01:25:24.762Z,1.00
2022-11-21T01:27:52.689Z,1.17
2022-11-21T01:30:20.604Z,1.33
2022-11-21T01:32:50.864Z,2.75
2022-11-21T01:35:18.952Z,1.45
2022-11-21T01:37:48.473Z,1.38
2022-11-21T01:40:16.720Z,1.80
2022-11-21T01:42:54.656Z,1.67
2022-11-21T01:45:54.022Z,1.75
2022-11-21T01:50:52.339Z,4.80
2022-11-21T01:53:20.589Z,1.88
2022-11-21T01:55:48.857Z,1.27
2022-11-21T01:58:17.242Z,1.52
2022-11-21T02:00:47.744Z,1.10
2022-11-21T02:03:20.215Z,1.58
2022-11-21T02:05:49.819Z,1.10
2022-11-21T02:08:21.047Z,1.10
2022-11-21T02:10:55.354Z,1.10
2022-11-21T02:13:23.818Z,1.88
2022-11-21T02:15:52.187Z,1.05
2022-11-21T02:18:20.015Z,1.17
2022-11-21T02:20:54.385Z,1.30
2022-11-21T02:23:30.683Z,1.20
2022-11-21T02:26:00.574Z,1.40
2022-11-21T02:28:29.501Z,1.20
2022-11-21T02:30:57.402Z,1.05
2022-11-21T02:33:25.265Z,1.17
2022-11-21T02:35:58.750Z,1.42
2022-11-21T02:38:30.157Z,1.45
2022-11-21T02:41:06.612Z,1.02
2022-11-21T02:43:39.293Z,1.05
2022-11-21T02:46:07.250Z,1.02
2022-11-21T02:48:35.865Z,1.27
2022-11-21T02:51:03.800Z,0.82
2022-11-21T02:53:31.845Z,0.80
2022-11-21T02:56:01.117Z,0.77
2022-11-21T02:58:29.112Z,0.73
2022-11-21T03:00:57.113Z,0.80
2022-11-21T03:03:25.031Z,0.90
2022-11-21T03:05:53.095Z,0.60
2022-11-21T03:08:20.958Z,0.80
2022-11-21T03:10:48.857Z,0.73
2022-11-21T03:13:18.121Z,0.70
2022-11-21T03:15:46.044Z,0.60
2022-11-21T03:18:14.023Z,0.70
2022-11-21T03:20:42.051Z,0.60
2022-11-21T03:23:09.932Z,0.50
2022-11-21T03:25:38.107Z,0.55
2022-11-21T03:28:06.023Z,0.65
2022-11-21T03:30:35.397Z,0.70
2022-11-21T03:33:03.357Z,0.60
2022-11-21T03:35:31.261Z,0.60
2022-11-21T03:37:59.153Z,0.57
2022-11-21T03:40:27.082Z,0.57
2022-11-21T03:42:54.951Z,0.70
2022-11-21T03:45:22.862Z,0.63
2022-11-21T03:47:52.166Z,0.90
2022-11-21T03:50:21.592Z,0.85
2022-11-21T03:52:49.548Z,0.70
2022-11-21T03:55:17.545Z,0.80
2022-11-21T03:57:45.465Z,0.75
2022-11-21T04:00:14.971Z,2.47
2022-11-21T04:02:42.928Z,0.77
2022-11-21T04:05:12.263Z,0.70
2022-11-21T04:07:40.180Z,0.70
2022-11-21T04:10:08.909Z,0.73
2022-11-21T04:12:36.773Z,0.85
2022-11-21T04:15:09.291Z,0.90
2022-11-21T04:17:40.114Z,0.88
2022-11-21T04:20:08.929Z,0.88
2022-11-21T04:22:38.137Z,0.75
2022-11-21T04:25:06.896Z,0.65
2022-11-21T04:27:34.809Z,0.60
2022-11-21T04:30:02.712Z,0.60
2022-11-21T04:32:30.622Z,0.70
2022-11-21T04:34:58.544Z,0.90
2022-11-21T04:37:26.434Z,0.75
2022-11-21T04:39:55.617Z,1.15
2022-11-21T04:42:23.597Z,0.88
2022-11-21T04:44:51.554Z,1.70
2022-11-21T04:47:19.444Z,0.98
2022-11-21T04:49:47.386Z,1.27
2022-11-21T04:52:15.384Z,1.10
2022-11-21T04:54:43.294Z,1.20
2022-11-21T04:57:12.477Z,1.00
2022-11-21T04:59:40.373Z,0.90
2022-11-21T05:02:08.296Z,0.88
2022-11-21T05:04:36.201Z,0.70
2022-11-21T05:07:04.114Z,0.68
2022-11-21T05:09:32.247Z,0.75
2022-11-21T05:12:17.826Z,1.05
2022-11-21T05:14:47.065Z,0.82
2022-11-21T05:17:14.918Z,1.00
2022-11-21T05:19:42.894Z,0.85
2022-11-21T05:22:10.841Z,1.00
2022-11-21T05:24:38.967Z,0.80
2022-11-21T05:27:06.963Z,0.98
2022-11-21T05:29:34.908Z,1.00
2022-11-21T05:32:04.297Z,0.80
2022-11-21T05:34:32.222Z,1.15
2022-11-21T05:37:00.109Z,0.70
2022-11-21T05:39:28.593Z,1.05
2022-11-21T05:42:02.494Z,0.95
2022-11-21T05:44:30.566Z,1.40
2022-11-21T05:46:58.735Z,1.02
2022-11-21T05:49:28.063Z,1.00
2022-11-21T05:51:55.948Z,0.90
2022-11-21T05:54:23.869Z,1.40
2022-11-21T05:56:51.744Z,1.02
2022-11-21T05:59:19.670Z,1.55
2022-11-21T06:02:13.326Z,0.90
2022-11-21T06:04:42.627Z,0.70
2022-11-21T06:07:10.543Z,1.08
2022-11-21T06:09:38.520Z,1.05
2022-11-21T06:12:06.898Z,0.95
2022-11-21T06:14:34.848Z,0.77
2022-11-21T06:17:02.820Z,1.90
2022-11-21T06:19:30.758Z,0.90
2022-11-21T06:21:59.990Z,0.93
2022-11-21T06:24:28.158Z,1.10
2022-11-21T06:26:56.203Z,1.08
2022-11-21T06:29:24.173Z,1.02
2022-11-21T06:31:52.120Z,1.15
2022-11-21T06:34:20.040Z,1.00
2022-11-21T06:36:49.355Z,0.90
2022-11-21T06:39:18.618Z,1.50
2022-11-21T06:41:50.955Z,1.73
2022-11-21T06:44:19.183Z,1.23
2022-11-21T06:46:51.146Z,1.40
2022-11-21T06:49:22.077Z,1.20
2022-11-21T06:51:49.985Z,1.70
2022-11-21T06:54:19.266Z,1.20
2022-11-21T06:56:47.135Z,1.60
2022-11-21T06:59:15.101Z,1.15
2022-11-21T07:01:43.007Z,1.67
2022-11-21T07:04:10.948Z,1.30
2022-11-21T07:06:38.823Z,1.52
2022-11-21T07:12:16.060Z,2.03
2022-11-21T07:14:43.052Z,1.85
2022-11-21T07:17:12.339Z,1.65
2022-11-21T07:19:41.153Z,1.50
2022-11-21T07:22:09.603Z,2.10
2022-11-21T07:24:37.586Z,2.60
2022-11-21T07:27:06.911Z,1.70
2022-11-21T07:29:34.823Z,1.88
2022-11-21T07:32:02.739Z,1.95
2022-11-21T07:34:30.618Z,2.22
2022-11-21T07:36:58.499Z,2.30
2022-11-21T07:39:26.687Z,1.92
2022-11-21T07:41:54.769Z,2.03
2022-11-21T07:44:24.275Z,2.05
2022-11-21T07:46:55.343Z,2.28
2022-11-21T07:49:23.283Z,2.17
2022-11-21T07:51:51.323Z,2.35
2022-11-21T07:54:19.168Z,2.22
2022-11-21T07:56:47.022Z,2.63
2022-11-21T07:59:14.901Z,2.05
2022-11-21T08:01:45.653Z,1.90
2022-11-21T08:04:13.748Z,2.00
2022-11-21T08:06:41.657Z,2.45
2022-11-21T08:09:09.590Z,1.92
2022-11-21T08:11:37.755Z,1.95
2022-11-21T08:14:05.921Z,1.88
2022-11-21T08:16:33.836Z,2.13
2022-11-21T08:19:03.408Z,1.63
2022-11-21T08:21:31.406Z,2.15
2022-11-21T08:23:59.283Z,2.40
2022-11-21T08:26:27.282Z,2.20
2022-11-21T08:28:59.754Z,1.75
2022-11-21T08:31:28.036Z,1.85
2022-11-21T08:33:57.062Z,3.60
2022-11-21T08:36:26.310Z,2.22
2022-11-21T08:38:54.279Z,1.88
2022-11-21T08:41:39.772Z,2.25
2022-11-21T08:44:13.674Z,2.97
2022-11-21T08:46:42.227Z,2.15
2022-11-21T08:49:10.504Z,1.80
2022-11-21T08:51:39.987Z,1.67
2022-11-21T08:54:09.388Z,2.67
2022-11-21T08:56:37.260Z,2.33
2022-11-21T08:59:05.305Z,2.35
2022-11-21T09:01:33.207Z,2.90
2022-11-21T09:04:01.048Z,1.95
2022-11-21T09:06:28.947Z,3.05
2022-11-21T09:08:58.198Z,1.50
2022-11-21T09:11:26.100Z,1.85
2022-11-21T09:14:08.369Z,1.80
2022-11-21T09:16:56.842Z,2.05
2022-11-21T09:19:28.969Z,1.85
2022-11-21T09:21:57.043Z,2.17
2022-11-21T09:24:26.304Z,1.73
2022-11-21T09:26:54.207Z,2.08
2022-11-21T09:29:22.234Z,1.95
2022-11-21T09:31:50.134Z,2.53
2022-11-21T09:34:18.523Z,2.28
2022-11-21T09:36:46.999Z,1.48
2022-11-21T09:39:14.982Z,1.77
2022-11-21T09:41:56.687Z,1.92
2022-11-21T09:44:40.557Z,1.38
2022-11-21T09:47:18.479Z,2.05
2022-11-21T09:49:53.183Z,1.25
2022-11-21T09:52:24.025Z,1.55
2022-11-21T09:54:57.114Z,1.42
2022-11-21T09:57:30.754Z,1.48
2022-11-21T10:00:05.461Z,2.00
2022-11-21T10:02:33.475Z,1.17
2022-11-21T10:05:01.397Z,1.42
2022-11-21T10:07:33.392Z,1.50
2022-11-21T10:10:22.778Z,1.60
2022-11-21T10:13:12.328Z,1.40
2022-11-21T10:15:54.914Z,1.98
2022-11-21T10:18:39.421Z,1.58
2022-11-21T10:21:14.946Z,1.27
2022-11-21T10:24:07.610Z,1.10
2022-11-21T10:26:44.437Z,1.55
2022-11-21T10:29:21.213Z,1.67
2022-11-21T10:31:50.545Z,1.20
2022-11-21T10:34:23.444Z,1.75
2022-11-21T10:36:54.638Z,1.70
2022-11-21T10:39:30.148Z,1.63
2022-11-21T10:42:03.961Z,1.85
2022-11-21T10:44:50.998Z,1.67
2022-11-21T10:47:27.755Z,1.65
2022-11-21T10:50:03.572Z,1.60
2022-11-21T10:52:35.674Z,1.80
2022-11-21T10:55:10.498Z,1.55
2022-11-21T10:57:42.370Z,1.98
2022-11-21T11:00:24.781Z,1.50
2022-11-21T11:03:05.677Z,1.65
2022-11-21T11:05:35.737Z,1.65
2022-11-21T11:08:06.609Z,1.60
2022-11-21T11:10:36.588Z,2.00
2022-11-21T11:13:45.385Z,1.35
2022-11-21T11:16:18.571Z,1.58
2022-11-21T11:18:56.172Z,1.70
2022-11-21T11:21:25.845Z,1.65
2022-11-21T11:23:55.435Z,1.30
2022-11-21T11:26:29.420Z,1.38
2022-11-21T11:29:10.025Z,1.80
2022-11-21T11:31:44.327Z,2.03
2022-11-21T11:34:15.965Z,1.63
2022-11-21T11:36:56.481Z,1.75
2022-11-21T11:39:37.448Z,1.65
2022-11-21T11:42:59.173Z,1.40
2022-11-21T11:45:58.646Z,1.50
2022-11-21T11:51:02.151Z,1.40
2022-11-21T11:53:34.394Z,1.85
2022-11-21T11:56:06.215Z,1.60
2022-11-21T11:58:41.204Z,1.77
2022-11-21T12:01:14.971Z,1.70
2022-11-21T12:03:54.866Z,1.38
2022-11-21T12:07:04.112Z,1.55
2022-11-21T12:09:24.874Z,1.25
2022-11-21T12:12:07.852Z,1.27
2022-11-21T12:15:08.711Z,1.30
2022-11-21T12:17:42.707Z,1.73
2022-11-21T12:20:18.839Z,1.27
2022-11-21T12:22:50.502Z,1.88
2022-11-21T12:25:22.711Z,1.27
2022-11-21T12:27:55.133Z,1.23
2022-11-21T12:30:50.864Z,1.13
2022-11-21T12:33:22.335Z,1.50
2022-11-21T12:36:18.792Z,1.30
2022-11-21T12:39:10.168Z,1.98
2022-11-21T12:42:00.387Z,1.75
2022-11-21T12:44:42.681Z,1.35
2022-11-21T12:47:27.001Z,1.15
2022-11-21T12:50:20.926Z,6.32
2022-11-21T12:53:13.277Z,1.33
2022-11-21T12:55:42.455Z,1.80
2022-11-21T12:58:26.748Z,1.58
2022-11-21T13:01:21.439Z,1.20
2022-11-21T13:03:56.574Z,1.20
2022-11-21T13:06:28.226Z,2.13
2022-11-21T13:09:01.445Z,2.10
2022-11-21T13:11:55.580Z,1.73
2022-11-21T13:14:30.342Z,4.53
2022-11-21T13:17:09.019Z,1.65
2022-11-21T13:19:43.811Z,2.30
2022-11-21T13:22:45.002Z,2.03
2022-11-21T13:25:34.408Z,1.70
2022-11-21T13:28:31.277Z,1.85
2022-11-21T13:31:00.771Z,2.22
2022-11-21T13:33:49.363Z,1.65
2022-11-21T13:36:40.228Z,1.40
2022-11-21T13:39:39.113Z,2.03
2022-11-21T13:42:32.773Z,2.58
2022-11-21T13:45:40.923Z,1.92
2022-11-21T13:48:40.267Z,2.25
2022-11-21T13:51:42.619Z,2.05
2022-11-21T13:54:54.955Z,1.80
2022-11-21T13:57:45.955Z,1.60
2022-11-21T14:00:33.355Z,1.80
2022-11-21T14:03:30.250Z,2.05
2022-11-21T14:06:19.677Z,2.10
2022-11-21T14:09:20.229Z,2.20
2022-11-21T14:11:50.061Z,1.90
2022-11-21T14:14:37.530Z,2.70
2022-11-21T14:17:33.845Z,2.63
2022-11-21T14:20:09.887Z,2.30
2022-11-21T14:22:45.731Z,2.35
2022-11-21T14:25:18.228Z,2.63
2022-11-21T14:27:49.590Z,2.35
2022-11-21T14:30:32.444Z,3.05
2022-11-21T14:33:18.444Z,2.95
2022-11-21T14:35:49.254Z,2.45
2022-11-21T14:38:17.256Z,2.35
2022-11-21T14:40:45.222Z,2.05
2022-11-21T14:43:32.290Z,2.45
2022-11-21T14:46:01.635Z,1.95
2022-11-21T14:48:30.616Z,1.77
2022-11-21T14:51:01.783Z,2.10
2022-11-21T14:53:30.027Z,2.10
2022-11-21T14:56:01.456Z,1.88
2022-11-21T14:58:29.888Z,3.30
2022-11-21T15:01:07.079Z,1.90
2022-11-21T15:03:35.954Z,2.40
2022-11-21T15:06:07.288Z,1.90
2022-11-21T15:11:33.583Z,2.33
2022-11-21T15:14:15.465Z,2.17
2022-11-21T15:16:47.644Z,2.10
2022-11-21T15:19:21.823Z,2.75
2022-11-21T15:21:51.394Z,2.30
2022-11-21T15:24:29.444Z,2.58
2022-11-21T15:26:57.682Z,2.60
2022-11-21T15:29:25.988Z,2.65
2022-11-21T15:32:16.132Z,2.95
2022-11-21T15:34:44.650Z,2.22
2022-11-21T15:37:17.105Z,2.80
2022-11-21T15:39:46.368Z,2.95
2022-11-21T15:42:35.754Z,3.13
2022-11-21T15:45:21.141Z,3.10
2022-11-21T15:47:50.436Z,2.72
2022-11-21T15:50:18.581Z,3.45
2022-11-21T15:52:48.243Z,2.45
2022-11-21T15:55:20.616Z,2.72
2022-11-21T15:57:48.489Z,2.97
2022-11-21T16:00:18.615Z,3.53
2022-11-21T16:02:47.383Z,2.92
2022-11-21T16:05:17.208Z,3.47
2022-11-21T16:07:45.194Z,2.75
2022-11-21T16:10:19.906Z,3.58
2022-11-21T16:12:53.956Z,4.38
2022-11-21T16:15:22.217Z,3.72
2022-11-21T16:17:50.236Z,3.40
2022-11-21T16:20:19.563Z,4.55
2022-11-21T16:22:48.165Z,3.72
2022-11-21T16:25:16.694Z,4.43
2022-11-21T16:27:44.666Z,3.97
2022-11-21T16:30:13.781Z,4.30
2022-11-21T16:32:41.804Z,5.63
2022-11-21T16:35:10.448Z,4.20
2022-11-21T16:37:40.130Z,4.53
2022-11-21T16:40:10.227Z,5.07
2022-11-21T16:42:38.111Z,4.32
2022-11-21T16:45:06.791Z,3.67
2022-11-21T16:47:37.861Z,3.95
2022-11-21T16:50:06.523Z,3.05
2022-11-21T16:52:36.609Z,3.58
2022-11-21T16:55:07.629Z,4.25
2022-11-21T16:57:36.473Z,4.60
2022-11-21T17:00:06.072Z,4.15
2022-11-21T17:02:34.110Z,4.53
2022-11-21T17:05:02.070Z,4.80
2022-11-21T17:07:30.147Z,5.45
2022-11-21T17:09:58.164Z,5.10
2022-11-21T17:12:27.863Z,4.25
2022-11-21T17:14:55.786Z,3.33
2022-11-21T17:17:23.736Z,2.88
2022-11-21T17:19:54.461Z,2.80
2022-11-21T17:22:24.776Z,3.65
2022-11-21T17:24:53.452Z,4.90
2022-11-21T17:27:21.463Z,10.82
2022-11-21T17:29:50.787Z,4.53
2022-11-21T17:32:18.948Z,3.92
2022-11-21T17:34:46.944Z,3.33
2022-11-21T17:37:14.889Z,3.05
2022-11-21T17:39:42.819Z,3.42
2022-11-21T17:42:10.806Z,2.83
2022-11-21T17:44:38.677Z,3.50
2022-11-21T17:47:07.990Z,3.97
2022-11-21T17:49:37.121Z,3.88
2022-11-21T17:52:07.415Z,3.72
2022-11-21T17:54:35.485Z,3.70
2022-11-21T17:57:03.462Z,4.28
2022-11-21T17:59:31.719Z,3.35
2022-11-21T18:02:00.000Z,3.78
2022-11-21T18:04:29.768Z,4.15
2022-11-21T18:06:57.944Z,3.75
2022-11-21T18:09:25.908Z,4.45
2022-11-21T18:11:53.852Z,3.35
2022-11-21T18:14:21.910Z,3.15
2022-11-21T18:16:53.366Z,3.92
2022-11-21T18:19:22.159Z,3.58
2022-11-21T18:21:51.823Z,3.35
2022-11-21T18:24:19.992Z,3.22
2022-11-21T18:26:47.954Z,3.45
2022-11-21T18:32:04.775Z,4.10
2022-11-21T18:34:32.716Z,4.30
2022-11-21T18:37:01.995Z,4.10
2022-11-21T18:39:30.104Z,3.90
2022-11-21T18:41:58.264Z,4.43
2022-11-21T18:44:26.178Z,3.95
2022-11-21T18:46:54.122Z,3.75
2022-11-21T18:49:22.031Z,4.30
2022-11-21T18:51:50.023Z,3.75
2022-11-21T18:54:19.305Z,4.90
2022-11-21T18:56:47.524Z,4.35
2022-11-21T18:59:15.625Z,2.80
2022-11-21T19:01:43.691Z,3.70
2022-11-21T19:04:11.677Z,3.17
2022-11-21T19:06:39.528Z,3.55
2022-11-21T19:09:08.179Z,4.25
2022-11-21T19:11:37.447Z,4.85
2022-11-21T19:14:05.414Z,4.63
2022-11-21T19:16:34.736Z,2.75
2022-11-21T19:19:33.144Z,3.42
2022-11-21T19:21:53.782Z,4.82
2022-11-21T19:24:21.710Z,4.47
2022-11-21T19:26:51.089Z,4.28
2022-11-21T19:29:19.189Z,3.22
2022-11-21T19:31:47.194Z,3.17
2022-11-21T19:34:15.656Z,3.10
2022-11-21T19:36:44.239Z,4.22
2022-11-21T19:39:12.422Z,4.00
2022-11-21T19:41:40.692Z,5.60
2022-11-21T19:44:11.398Z,3.78
2022-11-21T19:46:40.300Z,4.15
2022-11-21T19:49:09.801Z,3.30
2022-11-21T19:51:39.322Z,3.35
2022-11-21T19:54:08.643Z,3.67
2022-11-21T19:56:37.432Z,4.18
2022-11-21T19:59:05.681Z,3.90
2022-11-21T20:01:36.107Z,3.47
2022-11-21T20:04:06.102Z,3.88
2022-11-21T20:06:35.536Z,3.35
2022-11-21T20:09:06.032Z,3.83
2022-11-21T20:11:34.126Z,2.83
2022-11-21T20:14:02.043Z,3.05
2022-11-21T20:16:32.165Z,3.10
2022-11-21T20:19:02.836Z,3.40
2022-11-21T20:21:31.273Z,4.05
2022-11-21T20:23:59.505Z,3.17
2022-11-21T20:26:28.030Z,3.20
2022-11-21T20:28:56.512Z,3.47
2022-11-21T20:31:26.909Z,4.05
2022-11-21T20:33:57.412Z,3.90
2022-11-21T20:36:28.156Z,4.72
2022-11-21T20:38:57.659Z,4.10
2022-11-21T20:41:27.438Z,3.60
2022-11-21T20:44:44.687Z,4.60
2022-11-21T20:46:44.179Z,3.85
2022-11-21T20:49:12.457Z,4.53
2022-11-21T20:54:31.517Z,3.63
2022-11-21T20:56:59.668Z,3.70
2022-11-21T20:59:27.956Z,3.70
2022-11-21T21:01:56.260Z,3.00
2022-11-21T21:04:24.215Z,3.30
2022-11-21T21:06:53.498Z,3.35
2022-11-21T21:09:21.384Z,3.38
2022-11-21T21:11:52.590Z,3.40
2022-11-21T21:14:21.355Z,2.60
2022-11-21T21:16:49.314Z,3.95
2022-11-21T21:19:17.401Z,4.05
2022-11-21T21:21:45.364Z,3.58
2022-11-21T21:24:15.348Z,3.53
2022-11-21T21:26:45.301Z,3.58
2022-11-21T21:29:15.174Z,3.75
2022-11-21T21:31:50.050Z,4.00
2022-11-21T21:34:18.882Z,4.72
2022-11-21T21:36:46.941Z,3.85
2022-11-21T21:39:16.186Z,4.22
2022-11-21T21:41:46.195Z,4.45
2022-11-21T21:44:14.882Z,4.70
2022-11-21T21:46:42.822Z,4.70
2022-11-21T21:49:10.848Z,4.32
2022-11-21T21:51:39.845Z,5.38
2022-11-21T21:54:08.036Z,4.28
2022-11-21T21:56:37.323Z,4.10
2022-11-21T21:59:05.304Z,4.60
2022-11-21T22:01:33.870Z,4.32
2022-11-21T22:04:03.802Z,4.50
2022-11-21T22:06:33.705Z,5.15
2022-11-21T22:09:01.921Z,5.15
2022-11-21T22:11:31.589Z,4.85
2022-11-21T22:14:02.713Z,4.43
2022-11-21T22:16:31.438Z,5.10
2022-11-21T22:18:59.571Z,4.60
2022-11-21T22:21:28.952Z,6.25
2022-11-21T22:26:47.019Z,5.53
2022-11-21T22:29:16.263Z,4.70
2022-11-21T22:31:44.133Z,5.47
2022-11-21T22:34:13.418Z,5.60
2022-11-21T22:36:41.567Z,5.55
2022-11-21T22:39:09.679Z,5.45
2022-11-21T22:41:37.543Z,5.75
2022-11-21T22:44:06.528Z,4.68
2022-11-21T22:46:36.117Z,6.32
2022-11-21T22:49:03.990Z,5.45
2022-11-21T22:51:31.935Z,5.47
2022-11-21T22:53:59.841Z,5.93
2022-11-21T22:56:28.396Z,5.13
2022-11-21T22:58:56.741Z,5.35
2022-11-21T23:01:26.412Z,6.75
2022-11-21T23:03:56.594Z,5.57
2022-11-21T23:06:26.344Z,5.30
2022-11-21T23:08:55.730Z,5.28
2022-11-21T23:11:27.581Z,5.35
2022-11-21T23:13:57.064Z,4.32
2022-11-21T23:16:25.715Z,4.93
2022-11-21T23:18:56.567Z,4.75
2022-11-21T23:21:24.568Z,4.95
2022-11-21T23:23:52.500Z,4.07
2022-11-21T23:26:20.468Z,4.07
2022-11-21T23:28:48.430Z,3.45
2022-11-21T23:31:16.370Z,4.28
2022-11-21T23:33:44.268Z,3.40
2022-11-21T23:36:13.573Z,4.22
2022-11-21T23:38:41.543Z,4.28
2022-11-21T23:41:09.456Z,3.83
2022-11-21T23:43:37.446Z,3.20
2022-11-21T23:46:05.449Z,3.63
2022-11-21T23:48:33.305Z,3.33
2022-11-21T23:51:01.208Z,2.83
2022-11-21T23:53:30.449Z,2.88
2022-11-21T23:55:58.533Z,2.50
2022-11-21T23:58:26.478Z,2.40
